Vilnius, Lithuania
Current Conditions -  °F | °C
As of 9:20 AM on Wednesday 22 Oct 2014 (Local Time) from EYVI Reporting Station
Overcast Overcast  
Wind Chill: 27°   Ceiling: 700
Heat Index: 34°   Visibility: 5mi
Dew Point: 32°   Wind: 8mph
Humidity: 93%   Direction: 80°E
Pressure: 29.8"   Gusts: NA
Location:  54.7°N, 25.27°E
Report Text: EYVI 220620Z 08007KT 020V120 8000 OVC007 01/M00 Q1009 NOSIG
Loading
Personal Weather Stations






























Interactive Weather Map
Tropical Storm Tracking
New forecast layout! Learn more

10-Day Weather Forecast

Advertisements
Track Severe Weather on mobile